Terminal Aerodrome Forecast
Issued by NWS

Home | Current Version | Previous Version | Text Only | Print | Product List | Glossary On
Versions: 1 2 3 4 5 6 7 8 9 10 11 12 13 14 15 16 17 18 19 20 21 22 23 24 25 26 27 28 29
000
FTUS45 KGJT 252055 AAA
TAFRIL
TAF AMD
KRIL 252055Z 2521/2618 32007KT P6SM FEW110 SCT150
      TEMPO 2521/2522 33015G25KT
     FM260100 25009KT P6SM SCT150
     FM260300 14006KT P6SM SCT150 BKN200
     FM261200 VRB03KT P6SM BKN200=

USA.gov is the U.S. government's official web portal to all federal, state and local government web resources and services.